sensor_id;sensor_type;location;lat;lon;timestamp;temperature;humidity
5274;DHT22;56254;50.956;7.010;2022-11-15T00:00:07;12.60;99.90
5274;DHT22;56254;50.956;7.010;2022-11-15T00:02:33;12.60;99.90
5274;DHT22;56254;50.956;7.010;2022-11-15T00:04:58;12.60;99.90
5274;DHT22;56254;50.956;7.010;2022-11-15T00:07:24;12.60;99.90
5274;DHT22;56254;50.956;7.010;2022-11-15T00:09:50;12.70;99.90
5274;DHT22;56254;50.956;7.010;2022-11-15T00:12:15;12.60;99.90
5274;DHT22;56254;50.956;7.010;2022-11-15T00:14:42;12.60;99.90
5274;DHT22;56254;50.956;7.010;2022-11-15T00:17:08;12.60;99.90
5274;DHT22;56254;50.956;7.010;2022-11-15T00:19:33;12.60;99.90
5274;DHT22;56254;50.956;7.010;2022-11-15T00:21:59;12.60;99.90
5274;DHT22;56254;50.956;7.010;2022-11-15T00:24:24;12.70;99.90
5274;DHT22;56254;50.956;7.010;2022-11-15T00:26:50;12.70;99.90
5274;DHT22;56254;50.956;7.010;2022-11-15T00:29:17;12.70;99.90
5274;DHT22;56254;50.956;7.010;2022-11-15T00:31:42;12.70;99.90
5274;DHT22;56254;50.956;7.010;2022-11-15T00:34:09;12.80;99.90
5274;DHT22;56254;50.956;7.010;2022-11-15T00:36:35;12.90;99.90
5274;DHT22;56254;50.956;7.010;2022-11-15T00:39:04;12.90;99.90
5274;DHT22;56254;50.956;7.010;2022-11-15T00:41:31;12.90;99.90
5274;DHT22;56254;50.956;7.010;2022-11-15T00:43:57;12.80;99.90
5274;DHT22;56254;50.956;7.010;2022-11-15T00:46:23;12.70;99.90
5274;DHT22;56254;50.956;7.010;2022-11-15T00:48:49;12.80;99.90
5274;DHT22;56254;50.956;7.010;2022-11-15T00:51:14;12.80;99.90
5274;DHT22;56254;50.956;7.010;2022-11-15T00:53:40;12.80;99.90
5274;DHT22;56254;50.956;7.010;2022-11-15T00:56:06;12.80;99.90
5274;DHT22;56254;50.956;7.010;2022-11-15T00:58:31;12.80;99.90
5274;DHT22;56254;50.956;7.010;2022-11-15T01:01:06;12.90;99.90
5274;DHT22;56254;50.956;7.010;2022-11-15T01:03:33;12.90;99.90
5274;DHT22;56254;50.956;7.010;2022-11-15T01:06:00;13.00;99.90
5274;DHT22;56254;50.956;7.010;2022-11-15T01:08:25;12.90;99.90
5274;DHT22;56254;50.956;7.010;2022-11-15T01:10:52;12.90;99.90
5274;DHT22;56254;50.956;7.010;2022-11-15T01:13:17;13.00;99.90
5274;DHT22;56254;50.956;7.010;2022-11-15T01:15:43;13.00;99.90
5274;DHT22;56254;50.956;7.010;2022-11-15T01:18:09;13.00;99.90
5274;DHT22;56254;50.956;7.010;2022-11-15T01:20:39;13.00;99.90
5274;DHT22;56254;50.956;7.010;2022-11-15T01:23:06;13.00;99.90
5274;DHT22;56254;50.956;7.010;2022-11-15T01:25:32;13.00;99.90
5274;DHT22;56254;50.956;7.010;2022-11-15T01:27:58;13.00;99.90
5274;DHT22;56254;50.956;7.010;2022-11-15T01:30:24;13.10;99.90
5274;DHT22;56254;50.956;7.010;2022-11-15T01:32:49;13.10;99.90
5274;DHT22;56254;50.956;7.010;2022-11-15T01:35:15;13.10;99.90
5274;DHT22;56254;50.956;7.010;2022-11-15T01:37:41;13.10;99.90
5274;DHT22;56254;50.956;7.010;2022-11-15T01:40:08;13.10;99.90
5274;DHT22;56254;50.956;7.010;2022-11-15T01:42:34;13.20;99.90
5274;DHT22;56254;50.956;7.010;2022-11-15T01:45:00;13.20;99.90
5274;DHT22;56254;50.956;7.010;2022-11-15T01:47:33;13.20;99.90
5274;DHT22;56254;50.956;7.010;2022-11-15T01:50:02;13.10;99.90
5274;DHT22;56254;50.956;7.010;2022-11-15T01:52:30;13.10;99.90
5274;DHT22;56254;50.956;7.010;2022-11-15T01:55:05;13.20;99.90
5274;DHT22;56254;50.956;7.010;2022-11-15T01:57:33;13.20;99.90
5274;DHT22;56254;50.956;7.010;2022-11-15T02:00:00;13.20;99.90
5274;DHT22;56254;50.956;7.010;2022-11-15T02:02:26;13.20;99.90
5274;DHT22;56254;50.956;7.010;2022-11-15T02:04:52;13.20;99.90
5274;DHT22;56254;50.956;7.010;2022-11-15T02:07:20;13.30;99.90
5274;DHT22;56254;50.956;7.010;2022-11-15T02:09:46;13.30;99.90
5274;DHT22;56254;50.956;7.010;2022-11-15T02:12:15;13.20;99.90
5274;DHT22;56254;50.956;7.010;2022-11-15T02:14:45;13.20;99.90
5274;DHT22;56254;50.956;7.010;2022-11-15T02:17:33;13.20;99.90
5274;DHT22;56254;50.956;7.010;2022-11-15T02:23:25;13.20;99.90
5274;DHT22;56254;50.956;7.010;2022-11-15T02:31:48;13.20;99.90
5274;DHT22;56254;50.956;7.010;2022-11-15T02:34:54;13.40;99.90
5274;DHT22;56254;50.956;7.010;2022-11-15T02:37:27;13.30;99.90
5274;DHT22;56254;50.956;7.010;2022-11-15T02:39:59;13.20;99.90
5274;DHT22;56254;50.956;7.010;2022-11-15T02:42:30;13.40;99.90
5274;DHT22;56254;50.956;7.010;2022-11-15T02:45:21;13.40;99.90
5274;DHT22;56254;50.956;7.010;2022-11-15T02:47:51;13.30;99.90
5274;DHT22;56254;50.956;7.010;2022-11-15T02:50:21;13.20;99.90
5274;DHT22;56254;50.956;7.010;2022-11-15T02:52:49;13.30;99.90
5274;DHT22;56254;50.956;7.010;2022-11-15T02:55:30;13.30;99.90
5274;DHT22;56254;50.956;7.010;2022-11-15T02:58:36;13.40;99.90
5274;DHT22;56254;50.956;7.010;2022-11-15T03:04:14;13.30;99.90
5274;DHT22;56254;50.956;7.010;2022-11-15T03:09:32;13.30;99.90
5274;DHT22;56254;50.956;7.010;2022-11-15T03:12:14;13.40;99.90
5274;DHT22;56254;50.956;7.010;2022-11-15T03:14:55;13.40;99.90
5274;DHT22;56254;50.956;7.010;2022-11-15T03:17:40;13.40;99.90
5274;DHT22;56254;50.956;7.010;2022-11-15T03:20:08;13.40;99.90
5274;DHT22;56254;50.956;7.010;2022-11-15T03:22:38;13.40;99.90
5274;DHT22;56254;50.956;7.010;2022-11-15T03:25:07;13.50;99.90
5274;DHT22;56254;50.956;7.010;2022-11-15T03:27:38;13.50;99.90
5274;DHT22;56254;50.956;7.010;2022-11-15T03:30:07;13.60;99.90
5274;DHT22;56254;50.956;7.010;2022-11-15T03:32:46;13.50;99.90
5274;DHT22;56254;50.956;7.010;2022-11-15T03:35:15;13.50;99.90
5274;DHT22;56254;50.956;7.010;2022-11-15T03:37:51;13.50;99.90
5274;DHT22;56254;50.956;7.010;2022-11-15T03:40:19;13.60;99.90
5274;DHT22;56254;50.956;7.010;2022-11-15T03:42:57;13.60;99.90
5274;DHT22;56254;50.956;7.010;2022-11-15T03:45:31;13.60;99.90
5274;DHT22;56254;50.956;7.010;2022-11-15T03:48:02;13.60;99.90
5274;DHT22;56254;50.956;7.010;2022-11-15T03:50:30;13.60;99.90
5274;DHT22;56254;50.956;7.010;2022-11-15T03:52:57;13.60;99.90
5274;DHT22;56254;50.956;7.010;2022-11-15T03:55:24;13.70;99.90
5274;DHT22;56254;50.956;7.010;2022-11-15T03:57:52;13.60;99.90
5274;DHT22;56254;50.956;7.010;2022-11-15T04:00:19;13.60;99.90
5274;DHT22;56254;50.956;7.010;2022-11-15T04:02:44;13.60;99.90
5274;DHT22;56254;50.956;7.010;2022-11-15T04:05:10;13.70;99.90
5274;DHT22;56254;50.956;7.010;2022-11-15T04:07:37;13.70;99.90
5274;DHT22;56254;50.956;7.010;2022-11-15T04:10:03;13.70;99.90
5274;DHT22;56254;50.956;7.010;2022-11-15T04:12:32;13.70;99.90
5274;DHT22;56254;50.956;7.010;2022-11-15T04:14:59;13.70;99.90
5274;DHT22;56254;50.956;7.010;2022-11-15T04:17:34;13.70;99.90
5274;DHT22;56254;50.956;7.010;2022-11-15T04:20:02;13.70;99.90
5274;DHT22;56254;50.956;7.010;2022-11-15T04:22:46;13.70;99.90
5274;DHT22;56254;50.956;7.010;2022-11-15T04:25:30;13.70;99.90
5274;DHT22;56254;50.956;7.010;2022-11-15T04:27:56;13.80;99.90
5274;DHT22;56254;50.956;7.010;2022-11-15T04:30:23;13.70;99.90
5274;DHT22;56254;50.956;7.010;2022-11-15T04:32:49;13.80;99.90
5274;DHT22;56254;50.956;7.010;2022-11-15T04:35:15;13.90;99.90
5274;DHT22;56254;50.956;7.010;2022-11-15T04:37:40;13.70;99.90
5274;DHT22;56254;50.956;7.010;2022-11-15T04:40:06;13.70;99.90
5274;DHT22;56254;50.956;7.010;2022-11-15T04:42:32;13.70;99.90
5274;DHT22;56254;50.956;7.010;2022-11-15T04:44:58;13.70;99.90
5274;DHT22;56254;50.956;7.010;2022-11-15T04:47:23;13.80;99.90
5274;DHT22;56254;50.956;7.010;2022-11-15T04:49:49;13.80;99.90
5274;DHT22;56254;50.956;7.010;2022-11-15T04:52:15;13.70;99.90
5274;DHT22;56254;50.956;7.010;2022-11-15T04:54:40;13.70;99.90
5274;DHT22;56254;50.956;7.010;2022-11-15T04:57:07;13.80;99.90
5274;DHT22;56254;50.956;7.010;2022-11-15T04:59:33;13.80;99.90
5274;DHT22;56254;50.956;7.010;2022-11-15T05:01:58;13.80;99.90
5274;DHT22;56254;50.956;7.010;2022-11-15T05:04:24;13.80;99.90
5274;DHT22;56254;50.956;7.010;2022-11-15T05:06:51;13.80;99.90
5274;DHT22;56254;50.956;7.010;2022-11-15T05:09:20;13.80;99.90
5274;DHT22;56254;50.956;7.010;2022-11-15T05:11:46;13.80;99.90
5274;DHT22;56254;50.956;7.010;2022-11-15T05:14:13;13.80;99.90
5274;DHT22;56254;50.956;7.010;2022-11-15T05:16:38;13.70;99.90
5274;DHT22;56254;50.956;7.010;2022-11-15T05:19:04;13.70;99.90
5274;DHT22;56254;50.956;7.010;2022-11-15T05:21:31;13.70;99.90
5274;DHT22;56254;50.956;7.010;2022-11-15T05:23:57;13.70;99.90
5274;DHT22;56254;50.956;7.010;2022-11-15T05:26:23;13.80;99.90
5274;DHT22;56254;50.956;7.010;2022-11-15T05:28:55;13.70;99.90
5274;DHT22;56254;50.956;7.010;2022-11-15T05:31:22;13.70;99.90
5274;DHT22;56254;50.956;7.010;2022-11-15T05:33:49;13.70;99.90
5274;DHT22;56254;50.956;7.010;2022-11-15T05:36:29;13.70;99.90
5274;DHT22;56254;50.956;7.010;2022-11-15T05:38:56;13.70;99.90
5274;DHT22;56254;50.956;7.010;2022-11-15T05:41:29;13.60;99.90
5274;DHT22;56254;50.956;7.010;2022-11-15T05:43:56;13.60;99.90
5274;DHT22;56254;50.956;7.010;2022-11-15T05:46:22;13.50;99.90
5274;DHT22;56254;50.956;7.010;2022-11-15T05:48:50;13.50;99.90
5274;DHT22;56254;50.956;7.010;2022-11-15T05:51:17;13.50;99.90
5274;DHT22;56254;50.956;7.010;2022-11-15T05:53:44;13.50;99.90
5274;DHT22;56254;50.956;7.010;2022-11-15T05:56:11;13.40;99.90
5274;DHT22;56254;50.956;7.010;2022-11-15T05:58:37;13.40;99.90
5274;DHT22;56254;50.956;7.010;2022-11-15T06:01:04;13.30;99.90
5274;DHT22;56254;50.956;7.010;2022-11-15T06:03:29;13.20;99.90
5274;DHT22;56254;50.956;7.010;2022-11-15T06:05:56;13.20;99.90
5274;DHT22;56254;50.956;7.010;2022-11-15T06:08:22;13.20;99.90
5274;DHT22;56254;50.956;7.010;2022-11-15T06:10:48;13.10;99.90
5274;DHT22;56254;50.956;7.010;2022-11-15T06:13:13;13.10;99.90
5274;DHT22;56254;50.956;7.010;2022-11-15T06:15:39;13.20;99.90
5274;DHT22;56254;50.956;7.010;2022-11-15T06:18:05;13.10;99.90
5274;DHT22;56254;50.956;7.010;2022-11-15T06:20:30;13.10;99.90
5274;DHT22;56254;50.956;7.010;2022-11-15T06:23:01;13.10;99.90
5274;DHT22;56254;50.956;7.010;2022-11-15T06:25:28;13.10;99.90
5274;DHT22;56254;50.956;7.010;2022-11-15T06:27:55;13.10;99.90
5274;DHT22;56254;50.956;7.010;2022-11-15T06:30:22;13.10;99.90
5274;DHT22;56254;50.956;7.010;2022-11-15T06:33:14;13.00;99.90
5274;DHT22;56254;50.956;7.010;2022-11-15T06:35:40;12.90;99.90
5274;DHT22;56254;50.956;7.010;2022-11-15T06:38:09;13.00;99.90
5274;DHT22;56254;50.956;7.010;2022-11-15T06:40:36;12.80;99.90
5274;DHT22;56254;50.956;7.010;2022-11-15T06:43:03;12.90;99.90
5274;DHT22;56254;50.956;7.010;2022-11-15T06:45:30;13.00;99.90
5274;DHT22;56254;50.956;7.010;2022-11-15T06:47:56;12.90;99.90
5274;DHT22;56254;50.956;7.010;2022-11-15T06:50:22;12.80;99.90
5274;DHT22;56254;50.956;7.010;2022-11-15T06:52:48;12.90;99.90
5274;DHT22;56254;50.956;7.010;2022-11-15T06:55:13;12.80;99.90
5274;DHT22;56254;50.956;7.010;2022-11-15T06:57:50;12.90;99.90
5274;DHT22;56254;50.956;7.010;2022-11-15T07:00:19;13.00;99.90
5274;DHT22;56254;50.956;7.010;2022-11-15T07:02:46;12.90;99.90
5274;DHT22;56254;50.956;7.010;2022-11-15T07:05:12;12.90;99.90
5274;DHT22;56254;50.956;7.010;2022-11-15T07:07:38;12.90;99.90
5274;DHT22;56254;50.956;7.010;2022-11-15T07:10:05;13.00;99.90
5274;DHT22;56254;50.956;7.010;2022-11-15T07:12:32;13.00;99.90
5274;DHT22;56254;50.956;7.010;2022-11-15T07:14:57;12.90;99.90
5274;DHT22;56254;50.956;7.010;2022-11-15T07:17:23;12.80;99.90
5274;DHT22;56254;50.956;7.010;2022-11-15T07:19:49;12.90;99.90
5274;DHT22;56254;50.956;7.010;2022-11-15T07:22:14;12.90;99.90
5274;DHT22;56254;50.956;7.010;2022-11-15T07:24:40;12.90;99.90
5274;DHT22;56254;50.956;7.010;2022-11-15T07:27:06;12.80;99.90
5274;DHT22;56254;50.956;7.010;2022-11-15T07:29:31;12.90;99.90
5274;DHT22;56254;50.956;7.010;2022-11-15T07:31:57;12.90;99.90
5274;DHT22;56254;50.956;7.010;2022-11-15T07:34:23;12.80;99.90
5274;DHT22;56254;50.956;7.010;2022-11-15T07:36:49;12.90;99.90
5274;DHT22;56254;50.956;7.010;2022-11-15T07:39:14;12.80;99.90
5274;DHT22;56254;50.956;7.010;2022-11-15T07:41:40;12.80;99.90
5274;DHT22;56254;50.956;7.010;2022-11-15T07:44:06;12.80;99.90
5274;DHT22;56254;50.956;7.010;2022-11-15T07:46:32;12.90;99.90
5274;DHT22;56254;50.956;7.010;2022-11-15T07:48:57;12.90;99.90
5274;DHT22;56254;50.956;7.010;2022-11-15T07:51:23;12.80;99.90
5274;DHT22;56254;50.956;7.010;2022-11-15T07:53:49;12.80;99.90
5274;DHT22;56254;50.956;7.010;2022-11-15T07:56:14;12.90;99.90
5274;DHT22;56254;50.956;7.010;2022-11-15T07:58:40;12.90;99.90
5274;DHT22;56254;50.956;7.010;2022-11-15T08:01:07;12.90;99.90
5274;DHT22;56254;50.956;7.010;2022-11-15T08:03:34;13.00;99.90
5274;DHT22;56254;50.956;7.010;2022-11-15T08:06:00;13.00;99.90
5274;DHT22;56254;50.956;7.010;2022-11-15T08:08:25;13.00;99.90
5274;DHT22;56254;50.956;7.010;2022-11-15T08:10:51;13.10;99.90
5274;DHT22;56254;50.956;7.010;2022-11-15T08:13:17;13.10;99.90
5274;DHT22;56254;50.956;7.010;2022-11-15T08:15:42;13.20;99.90
5274;DHT22;56254;50.956;7.010;2022-11-15T08:18:13;13.10;99.90
5274;DHT22;56254;50.956;7.010;2022-11-15T08:20:40;13.10;99.90
5274;DHT22;56254;50.956;7.010;2022-11-15T08:23:06;13.10;99.90
5274;DHT22;56254;50.956;7.010;2022-11-15T08:25:33;13.30;99.90
5274;DHT22;56254;50.956;7.010;2022-11-15T08:28:05;13.30;99.90
5274;DHT22;56254;50.956;7.010;2022-11-15T08:30:38;13.40;99.90
5274;DHT22;56254;50.956;7.010;2022-11-15T08:33:04;13.40;99.90
5274;DHT22;56254;50.956;7.010;2022-11-15T08:35:30;13.40;99.90
5274;DHT22;56254;50.956;7.010;2022-11-15T08:37:55;13.50;99.90
5274;DHT22;56254;50.956;7.010;2022-11-15T08:40:21;13.50;99.90
5274;DHT22;56254;50.956;7.010;2022-11-15T08:42:48;13.40;99.90
5274;DHT22;56254;50.956;7.010;2022-11-15T08:45:13;13.60;99.90
5274;DHT22;56254;50.956;7.010;2022-11-15T08:47:39;13.70;99.90
5274;DHT22;56254;50.956;7.010;2022-11-15T08:50:05;13.70;99.90
5274;DHT22;56254;50.956;7.010;2022-11-15T08:52:31;13.70;99.90
5274;DHT22;56254;50.956;7.010;2022-11-15T08:54:57;13.80;99.90
5274;DHT22;56254;50.956;7.010;2022-11-15T08:57:24;13.90;99.90
5274;DHT22;56254;50.956;7.010;2022-11-15T08:59:49;13.90;99.90
5274;DHT22;56254;50.956;7.010;2022-11-15T09:02:15;13.90;99.90
5274;DHT22;56254;50.956;7.010;2022-11-15T09:04:43;13.90;99.90
5274;DHT22;56254;50.956;7.010;2022-11-15T09:07:10;14.00;99.90
5274;DHT22;56254;50.956;7.010;2022-11-15T09:09:36;14.10;99.90
5274;DHT22;56254;50.956;7.010;2022-11-15T09:12:02;14.20;99.90
5274;DHT22;56254;50.956;7.010;2022-11-15T09:14:28;14.30;99.90
5274;DHT22;56254;50.956;7.010;2022-11-15T09:16:54;14.50;99.90
5274;DHT22;56254;50.956;7.010;2022-11-15T09:19:20;14.60;99.90
5274;DHT22;56254;50.956;7.010;2022-11-15T09:21:46;14.50;99.90
5274;DHT22;56254;50.956;7.010;2022-11-15T09:24:12;14.60;99.90
5274;DHT22;56254;50.956;7.010;2022-11-15T09:26:37;14.60;99.90
5274;DHT22;56254;50.956;7.010;2022-11-15T09:29:03;14.60;99.90
5274;DHT22;56254;50.956;7.010;2022-11-15T09:31:29;14.60;99.90
5274;DHT22;56254;50.956;7.010;2022-11-15T09:33:55;14.80;99.90
5274;DHT22;56254;50.956;7.010;2022-11-15T09:36:21;14.80;99.90
5274;DHT22;56254;50.956;7.010;2022-11-15T09:38:47;15.00;99.90
5274;DHT22;56254;50.956;7.010;2022-11-15T09:49:45;14.80;99.90
5274;DHT22;56254;50.956;7.010;2022-11-15T09:52:13;15.00;99.70
5274;DHT22;56254;50.956;7.010;2022-11-15T09:54:41;15.10;98.70
5274;DHT22;56254;50.956;7.010;2022-11-15T10:02:37;15.20;98.90
5274;DHT22;56254;50.956;7.010;2022-11-15T10:05:09;15.20;98.20
5274;DHT22;56254;50.956;7.010;2022-11-15T10:10:44;15.20;97.70
5274;DHT22;56254;50.956;7.010;2022-11-15T10:13:25;15.60;96.00
5274;DHT22;56254;50.956;7.010;2022-11-15T10:15:53;16.00;93.90
5274;DHT22;56254;50.956;7.010;2022-11-15T10:20:59;15.60;93.50
5274;DHT22;56254;50.956;7.010;2022-11-15T10:23:31;15.30;94.80
5274;DHT22;56254;50.956;7.010;2022-11-15T10:26:00;15.40;94.90
5274;DHT22;56254;50.956;7.010;2022-11-15T10:28:27;15.50;93.30
5274;DHT22;56254;50.956;7.010;2022-11-15T10:30:58;15.70;92.90
5274;DHT22;56254;50.956;7.010;2022-11-15T10:33:34;15.80;92.00
5274;DHT22;56254;50.956;7.010;2022-11-15T10:44:22;16.30;88.70
5274;DHT22;56254;50.956;7.010;2022-11-15T10:52:02;15.90;88.20
5274;DHT22;56254;50.956;7.010;2022-11-15T10:54:39;16.00;87.70
5274;DHT22;56254;50.956;7.010;2022-11-15T10:57:21;16.00;85.90
5274;DHT22;56254;50.956;7.010;2022-11-15T11:00:26;15.80;85.70
5274;DHT22;56254;50.956;7.010;2022-11-15T11:05:32;15.90;84.10
5274;DHT22;56254;50.956;7.010;2022-11-15T11:08:18;15.90;84.30
5274;DHT22;56254;50.956;7.010;2022-11-15T11:10:56;16.10;83.30
5274;DHT22;56254;50.956;7.010;2022-11-15T11:13:39;16.10;83.30
5274;DHT22;56254;50.956;7.010;2022-11-15T11:19:02;16.10;83.40
5274;DHT22;56254;50.956;7.010;2022-11-15T11:27:41;16.20;83.30
5274;DHT22;56254;50.956;7.010;2022-11-15T11:45:14;16.20;83.90
5274;DHT22;56254;50.956;7.010;2022-11-15T11:47:32;16.40;83.40
5274;DHT22;56254;50.956;7.010;2022-11-15T11:50:20;16.20;83.10
5274;DHT22;56254;50.956;7.010;2022-11-15T11:53:00;16.20;83.10
5274;DHT22;56254;50.956;7.010;2022-11-15T11:55:31;16.30;83.30
5274;DHT22;56254;50.956;7.010;2022-11-15T11:58:19;16.50;83.30
5274;DHT22;56254;50.956;7.010;2022-11-15T12:00:55;16.40;83.80
5274;DHT22;56254;50.956;7.010;2022-11-15T12:06:29;16.60;84.00
5274;DHT22;56254;50.956;7.010;2022-11-15T12:11:59;16.80;84.70
5274;DHT22;56254;50.956;7.010;2022-11-15T12:15:12;16.90;84.10
5274;DHT22;56254;50.956;7.010;2022-11-15T12:17:13;17.00;84.00
5274;DHT22;56254;50.956;7.010;2022-11-15T12:19:40;17.30;83.80
5274;DHT22;56254;50.956;7.010;2022-11-15T12:25:28;17.70;83.10
5274;DHT22;56254;50.956;7.010;2022-11-15T12:30:45;17.10;83.60
5274;DHT22;56254;50.956;7.010;2022-11-15T12:33:40;17.20;83.10
5274;DHT22;56254;50.956;7.010;2022-11-15T12:36:34;17.40;82.80
5274;DHT22;56254;50.956;7.010;2022-11-15T12:38:58;17.40;82.30
5274;DHT22;56254;50.956;7.010;2022-11-15T12:41:29;17.10;82.70
5274;DHT22;56254;50.956;7.010;2022-11-15T12:43:56;17.10;83.00
5274;DHT22;56254;50.956;7.010;2022-11-15T13:08:01;16.50;87.10
5274;DHT22;56254;50.956;7.010;2022-11-15T13:10:28;16.60;86.90
5274;DHT22;56254;50.956;7.010;2022-11-15T13:13:02;16.50;87.60
5274;DHT22;56254;50.956;7.010;2022-11-15T13:18:34;16.40;88.80
5274;DHT22;56254;50.956;7.010;2022-11-15T13:21:16;16.40;89.20
5274;DHT22;56254;50.956;7.010;2022-11-15T13:24:14;16.40;89.20
5274;DHT22;56254;50.956;7.010;2022-11-15T13:26:41;16.50;89.50
5274;DHT22;56254;50.956;7.010;2022-11-15T13:29:18;16.40;89.40
5274;DHT22;56254;50.956;7.010;2022-11-15T13:31:45;16.40;89.60
5274;DHT22;56254;50.956;7.010;2022-11-15T13:34:33;16.40;89.70
5274;DHT22;56254;50.956;7.010;2022-11-15T13:37:00;16.50;89.90
5274;DHT22;56254;50.956;7.010;2022-11-15T13:39:29;16.60;89.90
5274;DHT22;56254;50.956;7.010;2022-11-15T13:41:56;16.40;89.90
5274;DHT22;56254;50.956;7.010;2022-11-15T13:44:31;16.50;89.90
5274;DHT22;56254;50.956;7.010;2022-11-15T13:47:19;16.40;90.10
5274;DHT22;56254;50.956;7.010;2022-11-15T13:49:45;16.70;90.10
5274;DHT22;56254;50.956;7.010;2022-11-15T13:52:13;16.60;89.90
5274;DHT22;56254;50.956;7.010;2022-11-15T13:54:46;16.50;89.90
5274;DHT22;56254;50.956;7.010;2022-11-15T13:59:52;16.30;90.10
5274;DHT22;56254;50.956;7.010;2022-11-15T14:02:26;16.30;90.20
5274;DHT22;56254;50.956;7.010;2022-11-15T14:04:55;16.20;90.50
5274;DHT22;56254;50.956;7.010;2022-11-15T14:07:24;16.40;90.60
5274;DHT22;56254;50.956;7.010;2022-11-15T14:12:32;16.50;90.70
5274;DHT22;56254;50.956;7.010;2022-11-15T14:15:00;16.40;91.00
5274;DHT22;56254;50.956;7.010;2022-11-15T14:19:57;16.40;90.60
5274;DHT22;56254;50.956;7.010;2022-11-15T14:22:29;16.30;90.70
5274;DHT22;56254;50.956;7.010;2022-11-15T14:25:16;16.40;90.90
5274;DHT22;56254;50.956;7.010;2022-11-15T14:27:43;16.30;90.90
5274;DHT22;56254;50.956;7.010;2022-11-15T14:30:14;16.30;91.00
5274;DHT22;56254;50.956;7.010;2022-11-15T14:32:50;16.40;91.20
5274;DHT22;56254;50.956;7.010;2022-11-15T14:35:22;16.40;91.30
5274;DHT22;56254;50.956;7.010;2022-11-15T14:37:49;16.30;91.40
5274;DHT22;56254;50.956;7.010;2022-11-15T14:40:20;16.20;91.80
5274;DHT22;56254;50.956;7.010;2022-11-15T14:42:49;16.20;91.90
5274;DHT22;56254;50.956;7.010;2022-11-15T14:45:20;16.00;91.90
5274;DHT22;56254;50.956;7.010;2022-11-15T14:47:47;16.10;92.30
5274;DHT22;56254;50.956;7.010;2022-11-15T14:50:16;16.10;92.40
5274;DHT22;56254;50.956;7.010;2022-11-15T14:52:42;16.20;92.30
5274;DHT22;56254;50.956;7.010;2022-11-15T14:55:21;16.10;92.50
5274;DHT22;56254;50.956;7.010;2022-11-15T14:57:48;16.00;92.50
5274;DHT22;56254;50.956;7.010;2022-11-15T15:00:14;16.10;92.50
5274;DHT22;56254;50.956;7.010;2022-11-15T15:02:42;16.00;92.80
5274;DHT22;56254;50.956;7.010;2022-11-15T15:05:18;16.00;92.50
5274;DHT22;56254;50.956;7.010;2022-11-15T15:07:45;15.90;92.90
5274;DHT22;56254;50.956;7.010;2022-11-15T15:10:11;16.00;92.90
5274;DHT22;56254;50.956;7.010;2022-11-15T15:12:37;16.00;93.20
5274;DHT22;56254;50.956;7.010;2022-11-15T15:15:04;15.80;93.60
5274;DHT22;56254;50.956;7.010;2022-11-15T15:17:30;15.80;93.50
5274;DHT22;56254;50.956;7.010;2022-11-15T15:19:56;15.70;93.70
5274;DHT22;56254;50.956;7.010;2022-11-15T15:22:22;15.70;93.50
5274;DHT22;56254;50.956;7.010;2022-11-15T15:24:50;15.70;93.60
5274;DHT22;56254;50.956;7.010;2022-11-15T15:27:17;15.70;93.70
5274;DHT22;56254;50.956;7.010;2022-11-15T15:29:43;15.70;93.80
5274;DHT22;56254;50.956;7.010;2022-11-15T15:32:09;15.70;93.70
5274;DHT22;56254;50.956;7.010;2022-11-15T15:34:35;15.70;93.90
5274;DHT22;56254;50.956;7.010;2022-11-15T15:37:24;15.70;94.00
5274;DHT22;56254;50.956;7.010;2022-11-15T15:39:51;15.70;93.90
5274;DHT22;56254;50.956;7.010;2022-11-15T15:42:18;15.70;94.40
5274;DHT22;56254;50.956;7.010;2022-11-15T15:44:45;15.60;94.10
5274;DHT22;56254;50.956;7.010;2022-11-15T15:47:13;15.80;94.20
5274;DHT22;56254;50.956;7.010;2022-11-15T15:49:40;15.50;94.50
5274;DHT22;56254;50.956;7.010;2022-11-15T15:52:05;15.70;94.60
5274;DHT22;56254;50.956;7.010;2022-11-15T15:54:31;15.70;94.70
5274;DHT22;56254;50.956;7.010;2022-11-15T15:56:57;15.60;94.70
5274;DHT22;56254;50.956;7.010;2022-11-15T15:59:22;15.60;94.60
5274;DHT22;56254;50.956;7.010;2022-11-15T16:01:48;15.60;94.60
5274;DHT22;56254;50.956;7.010;2022-11-15T16:04:14;15.50;95.10
5274;DHT22;56254;50.956;7.010;2022-11-15T16:06:40;15.40;95.30
5274;DHT22;56254;50.956;7.010;2022-11-15T16:09:19;15.30;96.90
5274;DHT22;56254;50.956;7.010;2022-11-15T16:12:08;15.40;97.00
5274;DHT22;56254;50.956;7.010;2022-11-15T16:14:34;15.30;97.40
5274;DHT22;56254;50.956;7.010;2022-11-15T16:17:00;15.30;97.20
5274;DHT22;56254;50.956;7.010;2022-11-15T16:19:26;15.30;97.00
5274;DHT22;56254;50.956;7.010;2022-11-15T16:21:52;15.30;97.20
5274;DHT22;56254;50.956;7.010;2022-11-15T16:24:18;15.40;96.00
5274;DHT22;56254;50.956;7.010;2022-11-15T16:26:48;15.50;95.90
5274;DHT22;56254;50.956;7.010;2022-11-15T16:29:15;15.50;95.80
5274;DHT22;56254;50.956;7.010;2022-11-15T16:31:41;15.60;95.80
5274;DHT22;56254;50.956;7.010;2022-11-15T16:34:07;15.50;95.80
5274;DHT22;56254;50.956;7.010;2022-11-15T16:36:34;15.50;95.70
5274;DHT22;56254;50.956;7.010;2022-11-15T16:39:00;15.40;95.60
5274;DHT22;56254;50.956;7.010;2022-11-15T16:41:29;15.50;95.90
5274;DHT22;56254;50.956;7.010;2022-11-15T16:43:58;15.50;95.60
5274;DHT22;56254;50.956;7.010;2022-11-15T16:46:27;15.50;95.80
5274;DHT22;56254;50.956;7.010;2022-11-15T16:48:54;15.60;95.80
5274;DHT22;56254;50.956;7.010;2022-11-15T16:51:20;15.60;95.50
5274;DHT22;56254;50.956;7.010;2022-11-15T16:53:46;15.50;95.60
5274;DHT22;56254;50.956;7.010;2022-11-15T16:56:26;15.50;95.50
5274;DHT22;56254;50.956;7.010;2022-11-15T16:58:54;15.50;95.80
5274;DHT22;56254;50.956;7.010;2022-11-15T17:01:43;15.50;95.60
5274;DHT22;56254;50.956;7.010;2022-11-15T17:04:19;15.40;95.80
5274;DHT22;56254;50.956;7.010;2022-11-15T17:06:47;15.50;96.10
5274;DHT22;56254;50.956;7.010;2022-11-15T17:09:21;15.50;96.00
5274;DHT22;56254;50.956;7.010;2022-11-15T17:11:52;15.50;95.50
5274;DHT22;56254;50.956;7.010;2022-11-15T17:14:18;15.60;96.00
5274;DHT22;56254;50.956;7.010;2022-11-15T17:16:46;15.60;95.50
5274;DHT22;56254;50.956;7.010;2022-11-15T17:19:17;15.60;95.70
5274;DHT22;56254;50.956;7.010;2022-11-15T17:21:44;15.60;95.90
5274;DHT22;56254;50.956;7.010;2022-11-15T17:24:10;15.60;95.80
5274;DHT22;56254;50.956;7.010;2022-11-15T17:26:37;15.60;95.80
5274;DHT22;56254;50.956;7.010;2022-11-15T17:29:03;15.60;96.00
5274;DHT22;56254;50.956;7.010;2022-11-15T17:31:33;15.50;96.20
5274;DHT22;56254;50.956;7.010;2022-11-15T17:34:00;15.60;95.70
5274;DHT22;56254;50.956;7.010;2022-11-15T17:36:26;15.60;95.70
5274;DHT22;56254;50.956;7.010;2022-11-15T17:38:52;15.50;95.80
5274;DHT22;56254;50.956;7.010;2022-11-15T17:41:18;15.60;95.70
5274;DHT22;56254;50.956;7.010;2022-11-15T17:43:46;15.50;96.40
5274;DHT22;56254;50.956;7.010;2022-11-15T17:46:17;15.50;97.30
5274;DHT22;56254;50.956;7.010;2022-11-15T17:48:44;15.50;97.80
5274;DHT22;56254;50.956;7.010;2022-11-15T17:51:11;15.40;99.90
5274;DHT22;56254;50.956;7.010;2022-11-15T17:53:42;15.30;99.90
5274;DHT22;56254;50.956;7.010;2022-11-15T17:56:10;15.40;99.90